Latest Weather Observations for Rabbit Flat

IDD60801

Issued at 11:35 pm CST Monday 22 September 2014 (issued every 30 minutes, with the page automatically refreshed every 10 minutes)

About weather observations | Map of weather stations | Latest weather observations for NT | Other Formats
Station Details ID: 015666 Name: RABBIT FLAT Lat: -20.18 Lon: 130.01 Height: 340.0 m
Data from the previous 72 hours. | See also: Recent months at Rabbit Flat
Date/Time
CST
Temp
°C
App
Temp
°C
Dew
Point
Rel
Hum
%
Delta-T
°C
Wind Press
QNH
hPa
Press
MSL
hPa
Rain
since 9 am
mm
Dir
 
Spd
km/h
Gust
km/h
Spd
kts
Gust
kts
22/11:30pm 16.4 12.9 1.2 35 6.8 NE 9 13 5 7 1014.2 - 0.0
22/11:00pm 16.5 14.2 0.4 33 7.1 W 2 7 1 4 1014.5 - 0.0
22/10:30pm 17.8 15.6 -1.3 27 8.2 CALM 0 0 0 0 1014.7 - 0.0
22/10:00pm 20.0 16.4 -2.0 22 9.5 E 7 9 4 5 1014.6 - 0.0
22/09:30pm 22.4 18.0 -2.6 18 10.9 ENE 11 13 6 7 1014.4 - 0.0
22/09:00pm 22.7 18.3 -2.3 18 11.0 ENE 11 15 6 8 1014.2 1012.5 0.0
22/08:30pm 22.8 18.6 -1.2 20 10.8 ENE 11 13 6 7 1014.0 - 0.0
22/08:00pm 23.6 19.3 -1.5 19 11.3 ENE 11 13 6 7 1013.9 - 0.0
22/07:30pm 25.3 21.0 -1.8 16 12.3 ENE 11 13 6 7 1013.7 - 0.0
22/07:00pm 26.3 22.8 1.3 19 12.1 E 9 11 5 6 1013.5 - 0.0
22/06:30pm 28.8 24.8 -2.4 13 14.4 NE 9 13 5 7 1013.2 - 0.0
22/06:00pm 30.4 25.3 -4.9 10 15.8 N 13 19 7 10 1013.1 1011.3 0.0
22/05:30pm 30.9 26.5 -2.8 11 15.7 N 11 20 6 11 1013.0 - 0.0
22/05:00pm 31.2 25.4 -8.4 7 16.8 N 15 24 8 13 1013.1 - 0.0
22/04:30pm 31.2 26.2 -4.0 10 16.1 NNE 13 19 7 10 1013.2 - 0.0
22/04:00pm 31.4 24.9 -7.6 7 16.8 NNE 19 24 10 13 1013.3 - 0.0
22/03:30pm 31.5 25.7 -8.6 7 17.0 N 15 30 8 16 1013.5 - 0.0
22/03:00pm 30.9 24.8 -7.5 8 16.5 NE 17 30 9 16 1013.9 1012.3 0.0
22/02:30pm 30.5 25.0 -5.2 9 15.9 NNE 15 32 8 17 1014.5 - 0.0
22/02:00pm 30.3 24.3 -6.5 9 16.0 NE 17 26 9 14 1014.9 - 0.0
22/01:30pm 30.2 24.1 -7.6 8 16.1 ENE 17 32 9 17 1015.7 - 0.0
22/01:00pm 29.7 23.2 -8.2 8 15.9 ENE 19 30 10 16 1016.5 - 0.0
22/12:30pm 28.5 21.6 -11.0 7 15.6 NE 20 32 11 17 1017.1 - 0.0
22/12:00pm 27.9 19.8 -11.3 7 15.3 ENE 26 35 14 19 1017.5 1015.9 0.0
22/11:30am 27.5 19.4 -11.4 7 15.1 NE 26 44 14 24 1017.9 - 0.0
22/11:00am 26.6 18.9 -10.5 8 14.5 NE 24 37 13 20 1018.5 - 0.0
22/10:47am 25.6 17.1 -12.5 7 14.2 NE 28 - 15 - - 1017.1 0.0
22/10:30am 25.8 17.7 -10.8 8 14.1 NE 26 39 14 21 1018.7 - 0.0
22/10:00am 24.4 15.9 -11.9 8 13.5 NE 28 43 15 23 1019.1 - 0.0
22/09:30am 23.8 15.7 -11.2 9 13.1 ENE 26 41 14 22 1019.2 - 0.0
22/09:00am 22.7 14.3 -10.9 10 12.5 ENE 28 46 15 25 1019.3 1017.6 0.0
22/08:57am 22.7 14.3 -10.9 10 12.5 ENE 28 48 15 26 1019.3 - 0.0
22/08:30am 21.8 14.6 -9.9 11 11.9 ENE 22 35 12 19 1019.2 - 0.0
22/08:00am 20.4 13.8 -8.6 13 11.0 ENE 19 30 10 16 1018.7 - 0.0
22/07:30am 18.4 12.6 -8.5 15 10.0 E 15 22 8 12 1018.5 - 0.0
22/07:00am 16.8 11.5 -7.2 18 9.0 E 13 19 7 10 1018.1 - 0.0
22/06:30am 16.6 11.3 -7.7 18 9.0 E 13 20 7 11 1017.9 - 0.0
22/06:00am 16.2 10.9 -7.6 19 8.8 E 13 17 7 9 1017.8 1016.1 0.0
22/05:30am 16.4 11.2 -6.6 20 8.7 E 13 19 7 10 1017.8 - 0.0
22/05:00am 16.3 11.6 -5.3 22 8.4 E 11 15 6 8 1017.9 - 0.0
22/04:30am 12.3 8.8 -1.5 38 5.6 E 7 11 4 6 1017.6 - 0.0
22/04:00am 13.6 9.6 -1.9 34 6.3 E 9 13 5 7 1017.4 - 0.0
22/03:30am 11.5 9.7 0.9 48 4.5 CALM 0 0 0 0 1017.5 - 0.0
22/03:00am 11.4 9.0 -0.2 44 4.8 SSE 2 7 1 4 1017.5 1015.8 0.0
22/02:30am 12.2 9.2 0.7 45 4.9 SSE 6 7 3 4 1017.5 - 0.0
22/02:00am 13.0 11.2 1.2 44 5.1 CALM 0 4 0 2 1017.5 - 0.0
22/01:30am 16.0 14.0 -0.2 33 7.0 CALM 0 0 0 0 1017.6 - 0.0
22/01:00am 17.4 15.5 0.5 32 7.5 CALM 0 0 0 0 1017.9 - 0.0
22/12:30am 17.9 16.0 0.3 30 7.8 CALM 0 0 0 0 1018.0 - 0.0
22/12:00am 17.0 13.5 1.5 35 7.0 SE 9 13 5 7 1018.1 1016.5 0.0
 
Date/Time
CST
Temp
°C
App
Temp
°C
Dew
Point
Rel
Hum
%
Delta-T
°C
Wind Press
QNH
hPa
Press
MSL
hPa
Rain
since 9 am
mm
Dir
 
Spd
km/h
Gust
km/h
Spd
kts
Gust
kts
21/11:30pm 16.5 13.4 1.6 36 6.7 SSE 7 9 4 5 1018.4 - 0.0
21/11:00pm 17.7 14.7 1.7 34 7.3 SE 7 11 4 6 1018.3 - 0.0
21/10:30pm 18.3 16.5 1.1 31 7.8 CALM 0 0 0 0 1018.2 - 0.0
21/10:00pm 20.2 18.5 1.7 29 8.6 CALM 0 0 0 0 1018.1 - 0.0
21/09:30pm 21.7 19.9 1.0 25 9.6 CALM 0 0 0 0 1017.8 - 0.0
21/09:00pm 23.0 21.1 0.7 23 10.4 CALM 0 0 0 0 1017.5 1015.7 0.0
21/08:30pm 23.8 22.0 1.2 22 10.7 CALM 0 0 0 0 1017.0 - 0.0
21/08:00pm 24.5 22.7 1.2 21 11.1 CALM 0 0 0 0 1016.8 - 0.0
21/07:30pm 26.1 24.4 1.9 20 11.8 CALM 0 0 0 0 1016.3 - 0.0
21/07:00pm 27.8 25.4 -0.1 16 13.3 SSE 2 13 1 7 1015.7 - 0.0
21/06:30pm 29.7 25.1 -1.0 13 14.6 ESE 13 20 7 11 1015.3 - 0.0
21/06:00pm 31.0 25.9 -1.6 12 15.5 ESE 15 24 8 13 1015.1 1013.4 0.0
21/05:30pm 31.5 25.6 -2.1 11 15.9 ESE 19 30 10 16 1014.9 - 0.0
21/05:00pm 32.0 26.6 -1.2 12 16.0 E 17 30 9 16 1015.0 - 0.0
21/04:30pm 32.4 27.6 -0.1 12 16.0 ESE 15 33 8 18 1015.2 - 0.0
21/04:00pm 32.0 26.6 -1.2 12 16.0 E 17 28 9 15 1015.4 - 0.0
21/03:30pm 32.0 26.2 -1.2 12 16.0 E 19 32 10 17 1015.6 - 0.0
21/03:00pm 31.8 25.0 -1.8 11 16.0 E 24 35 13 19 1016.0 1014.2 0.0
21/02:30pm 31.5 25.2 -1.2 12 15.7 E 22 39 12 21 1016.3 - 0.0
21/02:00pm 31.8 26.5 -0.4 12 15.7 E 17 33 9 18 1016.8 - 0.0
21/01:30pm 30.7 24.4 -1.1 13 15.2 E 22 37 12 20 1017.3 - 0.0
21/01:00pm 31.4 25.3 0.3 13 15.3 E 22 39 12 21 1017.8 - 0.0
21/12:30pm 29.5 22.5 -0.3 14 14.3 ENE 26 35 14 19 1018.5 - 0.0
21/12:00pm 28.7 21.4 -0.1 15 13.8 ENE 28 44 15 24 1019.5 1017.8 0.0
21/11:30am 28.7 22.6 0.3 16 13.7 E 22 33 12 18 1019.8 - 0.0
21/11:00am 27.8 21.3 0.6 17 13.1 ENE 24 41 13 22 1020.3 - 0.0
21/10:30am 26.2 18.1 -0.2 17 12.4 ENE 32 50 17 27 1020.8 - 0.0
21/10:00am 25.1 17.0 -0.3 19 11.8 E 32 50 17 27 1021.1 - 0.0
21/09:46am 24.7 17.0 0.0 19 11.5 ENE 30 48 16 26 1021.3 - 0.0
21/09:30am 24.6 18.1 0.6 20 11.3 ENE 24 37 13 20 1021.4 - 0.0
21/09:01am 23.5 16.3 0.5 22 10.7 ENE 28 48 15 26 1021.4 - 0.0
21/09:00am 23.5 17.0 0.5 22 10.7 ENE 24 48 13 26 1021.3 1019.7 0.0
21/08:30am 22.6 16.6 1.3 24 10.0 E 22 33 12 18 1021.0 - 0.0
21/08:00am 21.5 16.6 1.7 27 9.3 E 17 28 9 15 1020.7 - 0.0
21/07:30am 20.4 15.8 1.7 29 8.7 E 15 22 8 12 1020.2 - 0.0
21/07:00am 20.0 15.3 0.6 27 8.8 E 15 26 8 14 1019.6 - 0.0
21/06:30am 20.5 14.5 -1.4 23 9.6 E 20 28 11 15 1019.1 - 0.0
21/06:00am 21.3 15.1 -3.0 19 10.4 SE 20 30 11 16 1018.5 1016.7 0.0
21/05:30am 22.2 16.1 -3.6 17 11.0 ESE 19 37 10 20 1017.4 - 0.0
21/05:00am 22.1 16.1 -2.9 18 10.8 SE 19 24 10 13 1016.9 - 0.0
21/04:30am 20.8 18.6 -1.5 22 9.8 CALM 0 0 0 0 1016.3 - 0.0
21/04:00am 19.7 17.7 0.1 27 8.8 CALM 0 0 0 0 1016.0 - 0.0
21/03:30am 21.8 19.8 0.2 23 9.9 CALM 0 0 0 0 1015.9 - 0.0
21/03:00am 19.8 16.7 0.0 26 8.9 SSE 6 17 3 9 1015.7 1014.0 0.0
21/02:30am 17.8 15.4 2.2 35 7.2 S 4 7 2 4 1015.6 - 0.0
21/02:00am 19.8 17.3 1.4 29 8.5 SSE 4 11 2 6 1015.5 - 0.0
21/01:30am 22.2 17.4 0.2 23 10.1 S 15 19 8 10 1015.1 - 0.0
21/01:00am 22.9 18.1 0.5 22 10.4 S 15 19 8 10 1014.9 - 0.0
21/12:30am 24.3 19.1 0.0 20 11.3 S 17 22 9 12 1015.0 - 0.0
21/12:00am 22.9 18.5 0.5 22 10.4 S 13 17 7 9 1015.1 1013.4 0.0
 
Date/Time
CST
Temp
°C
App
Temp
°C
Dew
Point
Rel
Hum
%
Delta-T
°C
Wind Press
QNH
hPa
Press
MSL
hPa
Rain
since 9 am
mm
Dir
 
Spd
km/h
Gust
km/h
Spd
kts
Gust
kts
20/11:30pm 18.6 17.6 5.5 42 6.5 CALM 0 0 0 0 1014.9 - 0.0
20/11:00pm 19.8 18.7 5.1 38 7.3 CALM 0 0 0 0 1014.9 - 0.0
20/10:30pm 20.7 18.7 4.2 33 8.1 S 4 7 2 4 1014.9 - 0.0
20/10:00pm 21.4 18.6 2.9 29 8.9 SSE 7 9 4 5 1014.9 - 0.0
20/09:30pm 24.5 21.2 2.6 24 10.7 SSE 9 11 5 6 1014.8 - 0.0
20/09:00pm 26.1 22.7 1.6 20 11.9 S 9 11 5 6 1014.5 1012.7 0.0
20/08:30pm 26.1 23.0 3.7 23 11.3 S 9 11 5 6 1014.1 - 0.0
20/08:00pm 25.5 22.1 3.9 24 10.9 S 11 13 6 7 1013.8 - 0.0
20/07:30pm 27.6 25.6 7.3 27 11.0 S 7 9 4 5 1013.4 - 0.0
20/07:00pm 30.4 28.3 6.7 22 12.9 S 7 9 4 5 1013.1 - 0.0
20/06:30pm 33.2 30.0 3.1 15 15.7 S 9 9 5 5 1012.6 - 0.0
20/06:00pm 35.7 31.2 -3.1 8 18.6 S 11 15 6 8 1012.3 1010.6 0.0
20/05:30pm 36.5 30.9 -6.9 6 19.7 S 15 20 8 11 1012.2 - 0.0
20/05:00pm 37.2 32.1 -5.3 6 19.9 S 13 20 7 11 1012.0 - 0.0
20/04:30pm 37.8 32.9 -3.7 7 20.0 W 13 20 7 11 1011.9 - 0.0
20/04:00pm 37.8 33.4 -5.6 6 20.3 SSW 9 20 5 11 1011.8 - 0.0
20/03:30pm 37.6 34.3 -0.1 9 19.2 SSE 7 11 4 6 1011.9 - 0.0
20/03:00pm 37.5 31.4 -7.6 5 20.4 SSW 17 26 9 14 1012.3 1010.6 0.0
20/02:30pm 37.7 33.5 -4.1 7 20.0 W 9 19 5 10 1012.6 - 0.0
20/02:00pm 36.6 31.6 -4.0 7 19.3 W 13 20 7 11 1013.2 - 0.0
20/01:30pm 36.8 32.0 -2.7 8 19.2 N 13 20 7 11 1013.7 - 0.0
20/01:00pm 36.8 32.1 -5.1 7 19.6 WSW 11 26 6 14 1014.2 - 0.0
20/12:30pm 36.6 31.2 -4.6 7 19.4 NW 15 28 8 15 1014.7 - 0.0
20/12:00pm 36.4 31.3 -4.8 7 19.3 NW 13 32 7 17 1015.1 1013.5 0.0
20/11:30am 35.4 29.8 -3.1 8 18.4 NNW 17 26 9 14 1015.6 - 0.0
20/11:00am 34.6 28.9 -3.6 8 18.0 NNW 17 28 9 15 1016.1 - 0.0
20/10:30am 33.7 27.7 -3.2 9 17.4 N 19 28 10 15 1016.4 - 0.0
20/10:00am 32.0 26.7 -0.8 12 15.9 N 17 26 9 14 1016.5 - 0.0
20/09:30am 29.9 24.2 -0.5 14 14.6 N 19 28 10 15 1016.5 - 0.0
20/09:00am 28.0 24.1 1.1 17 13.1 N 11 19 6 10 1016.4 1014.7 0.0
20/08:30am 24.3 21.8 4.8 28 9.9 NNE 7 9 4 5 1016.1 - 0.0
20/08:00am 20.0 19.0 5.4 38 7.3 CALM 0 0 0 0 1016.0 - 0.0
20/07:30am 15.8 13.9 6.5 54 4.6 ESE 6 7 3 4 1015.6 - 0.0
20/07:00am 13.9 12.1 5.3 56 4.1 ESE 4 9 2 5 1015.3 - 0.0
20/06:30am 14.5 13.2 4.3 50 4.8 CALM 0 11 0 6 1015.0 - 0.0
20/06:00am 15.2 12.1 3.6 46 5.4 ESE 9 15 5 8 1014.8 1013.1 0.0
20/05:30am 14.2 13.1 4.9 53 4.4 CALM 0 0 0 0 1014.2 - 0.0
20/05:00am 14.2 13.3 6.0 58 4.0 CALM 0 0 0 0 1014.2 - 0.0
20/04:30am 14.3 12.4 5.1 54 4.4 SSW 4 6 2 3 1014.1 - 0.0
20/04:00am 15.5 13.6 5.1 50 5.0 SW 4 7 2 4 1014.2 - 0.0
20/03:30am 15.7 15.0 6.9 56 4.4 CALM 0 0 0 0 1014.2 - 0.0
20/03:00am 15.6 14.6 5.5 51 4.9 CALM 0 9 0 5 1014.3 1012.6 0.0
20/02:30am 15.9 14.8 4.9 48 5.3 CALM 0 0 0 0 1014.5 - 0.0
20/02:00am 16.6 15.3 3.9 42 6.0 CALM 0 0 0 0 1014.6 - 0.0
20/01:30am 17.6 16.1 6.7 48 5.5 SE 4 7 2 4 1014.9 - 0.0
20/01:00am 18.6 17.3 5.8 43 6.4 WSW 2 11 1 6 1015.2 - 0.0
20/12:30am 19.6 19.0 7.5 45 6.3 CALM 0 0 0 0 1015.2 - 0.0
20/12:00am 21.4 20.8 7.5 40 7.3 CALM 0 0 0 0 1015.4 1013.7 0.0

Other Formats:

Comma delimited format used in spreadsheet applications
http://www.bom.gov.au/fwo/IDD60801/IDD60801.95322.axf

JavaScript Object Notation format (JSON) in row-major order
http://www.bom.gov.au/fwo/IDD60801/IDD60801.95322.json